sensor_id;sensor_type;location;lat;lon;timestamp;P1;durP1;ratioP1;P2;durP2;ratioP2
13685;SDS011;6915;48.296;8.874;2023-07-13T00:02:10;5.78;;;2.00;;
13685;SDS011;6915;48.296;8.874;2023-07-13T00:04:39;4.53;;;1.50;;
13685;SDS011;6915;48.296;8.874;2023-07-13T00:07:10;3.53;;;1.90;;
13685;SDS011;6915;48.296;8.874;2023-07-13T00:09:40;2.88;;;1.70;;
13685;SDS011;6915;48.296;8.874;2023-07-13T00:12:22;2.30;;;1.80;;
13685;SDS011;6915;48.296;8.874;2023-07-13T00:15:00;2.65;;;1.60;;
13685;SDS011;6915;48.296;8.874;2023-07-13T00:17:30;2.65;;;1.75;;
13685;SDS011;6915;48.296;8.874;2023-07-13T00:19:59;4.35;;;2.08;;
13685;SDS011;6915;48.296;8.874;2023-07-13T00:22:29;5.13;;;1.90;;
13685;SDS011;6915;48.296;8.874;2023-07-13T00:24:59;5.95;;;2.00;;
13685;SDS011;6915;48.296;8.874;2023-07-13T00:27:29;2.35;;;1.85;;
13685;SDS011;6915;48.296;8.874;2023-07-13T00:29:58;3.28;;;1.85;;
13685;SDS011;6915;48.296;8.874;2023-07-13T00:32:28;2.95;;;1.77;;
13685;SDS011;6915;48.296;8.874;2023-07-13T00:34:56;3.15;;;1.85;;
13685;SDS011;6915;48.296;8.874;2023-07-13T00:37:25;2.97;;;1.90;;
13685;SDS011;6915;48.296;8.874;2023-07-13T00:39:54;3.55;;;1.65;;
13685;SDS011;6915;48.296;8.874;2023-07-13T00:42:22;2.55;;;1.73;;
13685;SDS011;6915;48.296;8.874;2023-07-13T00:45:03;4.38;;;1.85;;
13685;SDS011;6915;48.296;8.874;2023-07-13T00:47:34;4.40;;;2.00;;
13685;SDS011;6915;48.296;8.874;2023-07-13T00:50:03;2.75;;;1.83;;
13685;SDS011;6915;48.296;8.874;2023-07-13T00:52:35;3.42;;;1.60;;
13685;SDS011;6915;48.296;8.874;2023-07-13T00:55:07;2.65;;;1.50;;
13685;SDS011;6915;48.296;8.874;2023-07-13T00:57:37;1.48;;;1.38;;
13685;SDS011;6915;48.296;8.874;2023-07-13T01:00:08;3.28;;;1.50;;
13685;SDS011;6915;48.296;8.874;2023-07-13T01:02:38;2.13;;;1.55;;
13685;SDS011;6915;48.296;8.874;2023-07-13T01:05:08;3.47;;;1.67;;
13685;SDS011;6915;48.296;8.874;2023-07-13T01:07:39;2.55;;;1.70;;
13685;SDS011;6915;48.296;8.874;2023-07-13T01:10:09;2.30;;;1.80;;
13685;SDS011;6915;48.296;8.874;2023-07-13T01:12:39;3.28;;;1.73;;
13685;SDS011;6915;48.296;8.874;2023-07-13T01:18:02;4.30;;;1.40;;
13685;SDS011;6915;48.296;8.874;2023-07-13T01:20:33;2.55;;;1.70;;
13685;SDS011;6915;48.296;8.874;2023-07-13T01:23:05;3.33;;;1.73;;
13685;SDS011;6915;48.296;8.874;2023-07-13T01:25:34;3.53;;;1.52;;
13685;SDS011;6915;48.296;8.874;2023-07-13T01:28:03;1.45;;;1.35;;
13685;SDS011;6915;48.296;8.874;2023-07-13T01:30:33;2.08;;;1.30;;
13685;SDS011;6915;48.296;8.874;2023-07-13T01:33:03;3.70;;;1.50;;
13685;SDS011;6915;48.296;8.874;2023-07-13T01:35:32;5.78;;;1.70;;
13685;SDS011;6915;48.296;8.874;2023-07-13T01:38:01;4.60;;;1.52;;
13685;SDS011;6915;48.296;8.874;2023-07-13T01:40:32;5.20;;;1.90;;
13685;SDS011;6915;48.296;8.874;2023-07-13T01:43:01;7.20;;;1.55;;
13685;SDS011;6915;48.296;8.874;2023-07-13T01:45:30;1.70;;;1.60;;
13685;SDS011;6915;48.296;8.874;2023-07-13T01:47:58;2.95;;;1.50;;
13685;SDS011;6915;48.296;8.874;2023-07-13T01:50:27;3.55;;;1.42;;
13685;SDS011;6915;48.296;8.874;2023-07-13T01:52:56;1.42;;;1.30;;
13685;SDS011;6915;48.296;8.874;2023-07-13T01:55:27;2.08;;;1.30;;
13685;SDS011;6915;48.296;8.874;2023-07-13T01:57:58;2.65;;;1.70;;
13685;SDS011;6915;48.296;8.874;2023-07-13T02:00:29;4.90;;;1.77;;
13685;SDS011;6915;48.296;8.874;2023-07-13T02:02:57;4.10;;;1.45;;
13685;SDS011;6915;48.296;8.874;2023-07-13T02:05:26;4.13;;;1.70;;
13685;SDS011;6915;48.296;8.874;2023-07-13T02:07:55;8.05;;;1.70;;
13685;SDS011;6915;48.296;8.874;2023-07-13T02:10:24;3.13;;;1.40;;
13685;SDS011;6915;48.296;8.874;2023-07-13T02:12:53;4.70;;;1.70;;
13685;SDS011;6915;48.296;8.874;2023-07-13T02:15:23;3.60;;;1.40;;
13685;SDS011;6915;48.296;8.874;2023-07-13T02:17:53;7.07;;;1.98;;
13685;SDS011;6915;48.296;8.874;2023-07-13T02:20:22;5.32;;;1.75;;
13685;SDS011;6915;48.296;8.874;2023-07-13T02:22:58;5.18;;;1.63;;
13685;SDS011;6915;48.296;8.874;2023-07-13T02:25:39;3.07;;;1.40;;
13685;SDS011;6915;48.296;8.874;2023-07-13T02:28:07;1.97;;;1.30;;
13685;SDS011;6915;48.296;8.874;2023-07-13T02:30:37;3.67;;;1.40;;
13685;SDS011;6915;48.296;8.874;2023-07-13T02:33:06;3.13;;;1.30;;
13685;SDS011;6915;48.296;8.874;2023-07-13T02:35:35;3.20;;;1.52;;
13685;SDS011;6915;48.296;8.874;2023-07-13T02:38:05;2.70;;;1.40;;
13685;SDS011;6915;48.296;8.874;2023-07-13T02:40:34;1.58;;;1.30;;
13685;SDS011;6915;48.296;8.874;2023-07-13T02:43:03;3.55;;;1.48;;
13685;SDS011;6915;48.296;8.874;2023-07-13T02:45:32;6.28;;;1.50;;
13685;SDS011;6915;48.296;8.874;2023-07-13T02:48:02;2.65;;;1.45;;
13685;SDS011;6915;48.296;8.874;2023-07-13T02:50:31;3.25;;;1.30;;
13685;SDS011;6915;48.296;8.874;2023-07-13T02:53:00;3.37;;;1.57;;
13685;SDS011;6915;48.296;8.874;2023-07-13T02:55:29;3.47;;;1.63;;
13685;SDS011;6915;48.296;8.874;2023-07-13T02:57:58;2.03;;;1.30;;
13685;SDS011;6915;48.296;8.874;2023-07-13T03:00:29;2.77;;;1.30;;
13685;SDS011;6915;48.296;8.874;2023-07-13T03:02:58;2.93;;;1.57;;
13685;SDS011;6915;48.296;8.874;2023-07-13T03:05:28;3.35;;;1.42;;
13685;SDS011;6915;48.296;8.874;2023-07-13T03:07:57;7.37;;;1.60;;
13685;SDS011;6915;48.296;8.874;2023-07-13T03:10:26;7.05;;;1.70;;
13685;SDS011;6915;48.296;8.874;2023-07-13T03:12:56;6.13;;;1.43;;
13685;SDS011;6915;48.296;8.874;2023-07-13T03:15:25;4.20;;;1.50;;
13685;SDS011;6915;48.296;8.874;2023-07-13T03:17:52;6.80;;;1.40;;
13685;SDS011;6915;48.296;8.874;2023-07-13T03:20:23;3.73;;;1.50;;
13685;SDS011;6915;48.296;8.874;2023-07-13T03:22:56;7.00;;;1.57;;
13685;SDS011;6915;48.296;8.874;2023-07-13T03:25:25;4.20;;;1.43;;
13685;SDS011;6915;48.296;8.874;2023-07-13T03:27:53;5.23;;;1.50;;
13685;SDS011;6915;48.296;8.874;2023-07-13T03:30:22;1.50;;;1.20;;
13685;SDS011;6915;48.296;8.874;2023-07-13T03:32:51;8.03;;;1.60;;
13685;SDS011;6915;48.296;8.874;2023-07-13T03:35:19;10.40;;;1.70;;
13685;SDS011;6915;48.296;8.874;2023-07-13T03:37:48;4.20;;;1.33;;
13685;SDS011;6915;48.296;8.874;2023-07-13T03:40:18;9.40;;;1.70;;
13685;SDS011;6915;48.296;8.874;2023-07-13T03:42:47;5.93;;;1.27;;
13685;SDS011;6915;48.296;8.874;2023-07-13T03:45:16;3.43;;;1.30;;
13685;SDS011;6915;48.296;8.874;2023-07-13T03:47:45;5.80;;;1.40;;
13685;SDS011;6915;48.296;8.874;2023-07-13T03:50:14;2.73;;;1.20;;
13685;SDS011;6915;48.296;8.874;2023-07-13T03:52:42;2.70;;;1.53;;
13685;SDS011;6915;48.296;8.874;2023-07-13T03:55:11;2.47;;;1.50;;
13685;SDS011;6915;48.296;8.874;2023-07-13T03:57:41;3.77;;;1.30;;
13685;SDS011;6915;48.296;8.874;2023-07-13T04:00:10;2.60;;;1.60;;
13685;SDS011;6915;48.296;8.874;2023-07-13T04:02:38;4.17;;;1.60;;
13685;SDS011;6915;48.296;8.874;2023-07-13T04:05:07;3.47;;;1.53;;
13685;SDS011;6915;48.296;8.874;2023-07-13T04:07:35;3.20;;;1.40;;
13685;SDS011;6915;48.296;8.874;2023-07-13T04:10:04;5.17;;;1.57;;
13685;SDS011;6915;48.296;8.874;2023-07-13T04:12:32;3.63;;;1.60;;
13685;SDS011;6915;48.296;8.874;2023-07-13T04:15:03;4.13;;;1.70;;
13685;SDS011;6915;48.296;8.874;2023-07-13T04:17:33;6.83;;;1.70;;
13685;SDS011;6915;48.296;8.874;2023-07-13T04:20:05;6.40;;;1.43;;
13685;SDS011;6915;48.296;8.874;2023-07-13T04:22:40;4.87;;;1.53;;
13685;SDS011;6915;48.296;8.874;2023-07-13T04:25:08;5.83;;;1.90;;
13685;SDS011;6915;48.296;8.874;2023-07-13T04:27:37;5.57;;;1.73;;
13685;SDS011;6915;48.296;8.874;2023-07-13T04:30:08;6.07;;;1.63;;
13685;SDS011;6915;48.296;8.874;2023-07-13T04:32:37;3.63;;;1.30;;
13685;SDS011;6915;48.296;8.874;2023-07-13T04:35:06;6.87;;;1.67;;
13685;SDS011;6915;48.296;8.874;2023-07-13T04:37:34;7.00;;;1.90;;
13685;SDS011;6915;48.296;8.874;2023-07-13T04:40:03;4.07;;;1.63;;
13685;SDS011;6915;48.296;8.874;2023-07-13T04:42:37;9.87;;;1.57;;
13685;SDS011;6915;48.296;8.874;2023-07-13T04:45:08;5.83;;;1.90;;
13685;SDS011;6915;48.296;8.874;2023-07-13T04:47:37;4.00;;;1.63;;
13685;SDS011;6915;48.296;8.874;2023-07-13T04:50:06;5.27;;;1.80;;
13685;SDS011;6915;48.296;8.874;2023-07-13T04:52:46;4.30;;;1.33;;
13685;SDS011;6915;48.296;8.874;2023-07-13T04:55:16;9.83;;;1.67;;
13685;SDS011;6915;48.296;8.874;2023-07-13T04:57:48;5.30;;;1.70;;
13685;SDS011;6915;48.296;8.874;2023-07-13T05:00:32;10.77;;;1.90;;
13685;SDS011;6915;48.296;8.874;2023-07-13T05:03:02;7.23;;;2.40;;
13685;SDS011;6915;48.296;8.874;2023-07-13T05:05:40;10.83;;;2.13;;
13685;SDS011;6915;48.296;8.874;2023-07-13T05:08:12;4.23;;;2.00;;
13685;SDS011;6915;48.296;8.874;2023-07-13T05:10:42;6.43;;;2.00;;
13685;SDS011;6915;48.296;8.874;2023-07-13T05:13:11;4.03;;;1.73;;
13685;SDS011;6915;48.296;8.874;2023-07-13T05:15:41;6.17;;;2.40;;
13685;SDS011;6915;48.296;8.874;2023-07-13T05:18:10;6.17;;;2.10;;
13685;SDS011;6915;48.296;8.874;2023-07-13T05:20:39;4.80;;;2.33;;
13685;SDS011;6915;48.296;8.874;2023-07-13T05:28:46;3.57;;;1.90;;
13685;SDS011;6915;48.296;8.874;2023-07-13T05:31:16;9.05;;;2.05;;
13685;SDS011;6915;48.296;8.874;2023-07-13T05:33:45;6.87;;;1.77;;
13685;SDS011;6915;48.296;8.874;2023-07-13T05:36:14;4.45;;;1.60;;
13685;SDS011;6915;48.296;8.874;2023-07-13T05:38:42;6.57;;;1.65;;
13685;SDS011;6915;48.296;8.874;2023-07-13T05:41:11;3.38;;;1.80;;
13685;SDS011;6915;48.296;8.874;2023-07-13T05:43:39;6.07;;;1.80;;
13685;SDS011;6915;48.296;8.874;2023-07-13T05:46:08;3.65;;;1.92;;
13685;SDS011;6915;48.296;8.874;2023-07-13T05:48:38;4.05;;;1.73;;
13685;SDS011;6915;48.296;8.874;2023-07-13T05:51:07;8.85;;;2.05;;
13685;SDS011;6915;48.296;8.874;2023-07-13T05:53:36;4.07;;;1.80;;
13685;SDS011;6915;48.296;8.874;2023-07-13T05:56:04;8.20;;;1.85;;
13685;SDS011;6915;48.296;8.874;2023-07-13T05:58:31;3.42;;;1.88;;
13685;SDS011;6915;48.296;8.874;2023-07-13T06:01:01;5.53;;;1.80;;
13685;SDS011;6915;48.296;8.874;2023-07-13T06:03:31;6.97;;;2.00;;
13685;SDS011;6915;48.296;8.874;2023-07-13T06:06:01;4.10;;;1.92;;
13685;SDS011;6915;48.296;8.874;2023-07-13T06:08:30;5.68;;;1.67;;
13685;SDS011;6915;48.296;8.874;2023-07-13T06:11:03;3.28;;;1.40;;
13685;SDS011;6915;48.296;8.874;2023-07-13T06:13:33;5.47;;;1.75;;
13685;SDS011;6915;48.296;8.874;2023-07-13T06:16:02;7.40;;;1.85;;
13685;SDS011;6915;48.296;8.874;2023-07-13T06:18:31;3.78;;;1.70;;
13685;SDS011;6915;48.296;8.874;2023-07-13T06:21:05;5.57;;;2.17;;
13685;SDS011;6915;48.296;8.874;2023-07-13T06:23:32;4.85;;;2.10;;
13685;SDS011;6915;48.296;8.874;2023-07-13T06:26:01;2.22;;;1.42;;
13685;SDS011;6915;48.296;8.874;2023-07-13T06:28:33;3.80;;;1.83;;
13685;SDS011;6915;48.296;8.874;2023-07-13T06:31:14;2.67;;;1.70;;
13685;SDS011;6915;48.296;8.874;2023-07-13T06:33:43;7.45;;;1.48;;
13685;SDS011;6915;48.296;8.874;2023-07-13T06:36:14;4.07;;;1.50;;
13685;SDS011;6915;48.296;8.874;2023-07-13T06:38:44;3.63;;;1.73;;
13685;SDS011;6915;48.296;8.874;2023-07-13T06:41:15;4.40;;;1.70;;
13685;SDS011;6915;48.296;8.874;2023-07-13T06:43:43;5.10;;;1.58;;
13685;SDS011;6915;48.296;8.874;2023-07-13T06:46:12;6.10;;;1.50;;
13685;SDS011;6915;48.296;8.874;2023-07-13T06:48:40;3.42;;;1.73;;
13685;SDS011;6915;48.296;8.874;2023-07-13T06:51:09;2.30;;;1.70;;
13685;SDS011;6915;48.296;8.874;2023-07-13T06:53:40;4.68;;;1.90;;
13685;SDS011;6915;48.296;8.874;2023-07-13T06:56:09;4.32;;;1.63;;
13685;SDS011;6915;48.296;8.874;2023-07-13T06:58:38;6.95;;;1.98;;
13685;SDS011;6915;48.296;8.874;2023-07-13T07:01:07;3.33;;;2.03;;
13685;SDS011;6915;48.296;8.874;2023-07-13T07:03:41;3.97;;;1.70;;
13685;SDS011;6915;48.296;8.874;2023-07-13T07:06:12;3.08;;;1.65;;
13685;SDS011;6915;48.296;8.874;2023-07-13T07:08:43;5.55;;;1.50;;
13685;SDS011;6915;48.296;8.874;2023-07-13T07:11:14;5.30;;;1.50;;
13685;SDS011;6915;48.296;8.874;2023-07-13T07:13:43;3.03;;;1.40;;
13685;SDS011;6915;48.296;8.874;2023-07-13T07:16:12;2.00;;;1.20;;
13685;SDS011;6915;48.296;8.874;2023-07-13T07:18:40;2.15;;;1.20;;
13685;SDS011;6915;48.296;8.874;2023-07-13T07:21:09;2.35;;;0.90;;
13685;SDS011;6915;48.296;8.874;2023-07-13T07:23:38;3.55;;;1.30;;
13685;SDS011;6915;48.296;8.874;2023-07-13T07:26:08;3.22;;;1.13;;
13685;SDS011;6915;48.296;8.874;2023-07-13T07:28:36;3.38;;;1.30;;
13685;SDS011;6915;48.296;8.874;2023-07-13T07:31:05;2.58;;;1.00;;
13685;SDS011;6915;48.296;8.874;2023-07-13T07:33:34;2.60;;;1.02;;
13685;SDS011;6915;48.296;8.874;2023-07-13T07:36:06;6.47;;;1.30;;
13685;SDS011;6915;48.296;8.874;2023-07-13T07:38:35;4.35;;;1.40;;
13685;SDS011;6915;48.296;8.874;2023-07-13T07:41:03;2.83;;;1.20;;
13685;SDS011;6915;48.296;8.874;2023-07-13T07:43:34;3.50;;;1.30;;
13685;SDS011;6915;48.296;8.874;2023-07-13T07:46:03;4.65;;;1.25;;
13685;SDS011;6915;48.296;8.874;2023-07-13T07:48:34;4.25;;;1.30;;
13685;SDS011;6915;48.296;8.874;2023-07-13T07:51:12;6.03;;;1.42;;
13685;SDS011;6915;48.296;8.874;2023-07-13T07:53:41;3.00;;;1.42;;
13685;SDS011;6915;48.296;8.874;2023-07-13T07:56:10;2.25;;;1.20;;
13685;SDS011;6915;48.296;8.874;2023-07-13T07:58:39;4.10;;;1.38;;
13685;SDS011;6915;48.296;8.874;2023-07-13T08:01:08;2.05;;;1.10;;
13685;SDS011;6915;48.296;8.874;2023-07-13T08:03:37;2.38;;;1.38;;
13685;SDS011;6915;48.296;8.874;2023-07-13T08:06:05;3.92;;;1.40;;
13685;SDS011;6915;48.296;8.874;2023-07-13T08:08:35;4.75;;;1.25;;
13685;SDS011;6915;48.296;8.874;2023-07-13T08:11:04;2.20;;;1.20;;
13685;SDS011;6915;48.296;8.874;2023-07-13T08:13:34;1.92;;;1.10;;
13685;SDS011;6915;48.296;8.874;2023-07-13T08:16:05;4.05;;;1.30;;
13685;SDS011;6915;48.296;8.874;2023-07-13T08:18:34;3.53;;;1.40;;
13685;SDS011;6915;48.296;8.874;2023-07-13T08:21:03;3.75;;;1.20;;
13685;SDS011;6915;48.296;8.874;2023-07-13T08:23:33;5.53;;;1.52;;
13685;SDS011;6915;48.296;8.874;2023-07-13T08:26:02;2.90;;;1.10;;
13685;SDS011;6915;48.296;8.874;2023-07-13T08:28:31;4.43;;;1.30;;
13685;SDS011;6915;48.296;8.874;2023-07-13T08:31:00;1.88;;;1.10;;
13685;SDS011;6915;48.296;8.874;2023-07-13T08:33:29;2.17;;;1.20;;
13685;SDS011;6915;48.296;8.874;2023-07-13T08:35:57;4.72;;;1.55;;
13685;SDS011;6915;48.296;8.874;2023-07-13T08:38:26;5.35;;;1.30;;
13685;SDS011;6915;48.296;8.874;2023-07-13T08:40:56;4.13;;;1.55;;
13685;SDS011;6915;48.296;8.874;2023-07-13T08:43:25;2.70;;;1.33;;
13685;SDS011;6915;48.296;8.874;2023-07-13T08:45:58;3.50;;;1.20;;
13685;SDS011;6915;48.296;8.874;2023-07-13T08:48:34;3.20;;;1.40;;
13685;SDS011;6915;48.296;8.874;2023-07-13T08:51:11;2.75;;;1.15;;
13685;SDS011;6915;48.296;8.874;2023-07-13T08:53:49;3.67;;;1.23;;
13685;SDS011;6915;48.296;8.874;2023-07-13T08:56:22;4.22;;;1.15;;
13685;SDS011;6915;48.296;8.874;2023-07-13T08:58:53;2.47;;;1.10;;
13685;SDS011;6915;48.296;8.874;2023-07-13T09:01:27;2.97;;;1.17;;
13685;SDS011;6915;48.296;8.874;2023-07-13T09:04:02;3.78;;;1.25;;
13685;SDS011;6915;48.296;8.874;2023-07-13T09:06:34;3.05;;;1.30;;
13685;SDS011;6915;48.296;8.874;2023-07-13T09:09:08;4.78;;;1.02;;
13685;SDS011;6915;48.296;8.874;2023-07-13T09:11:45;2.65;;;1.13;;
13685;SDS011;6915;48.296;8.874;2023-07-13T09:14:26;3.05;;;1.20;;
13685;SDS011;6915;48.296;8.874;2023-07-13T09:17:09;4.45;;;1.27;;
13685;SDS011;6915;48.296;8.874;2023-07-13T09:19:42;4.35;;;1.30;;
13685;SDS011;6915;48.296;8.874;2023-07-13T09:22:17;3.72;;;1.38;;
13685;SDS011;6915;48.296;8.874;2023-07-13T09:24:51;4.57;;;1.30;;
13685;SDS011;6915;48.296;8.874;2023-07-13T09:27:23;4.72;;;1.10;;
13685;SDS011;6915;48.296;8.874;2023-07-13T09:30:10;5.15;;;1.40;;
13685;SDS011;6915;48.296;8.874;2023-07-13T09:32:50;1.88;;;1.40;;
13685;SDS011;6915;48.296;8.874;2023-07-13T09:35:21;3.70;;;1.30;;
13685;SDS011;6915;48.296;8.874;2023-07-13T09:37:56;2.97;;;1.05;;
13685;SDS011;6915;48.296;8.874;2023-07-13T09:40:32;2.50;;;1.10;;
13685;SDS011;6915;48.296;8.874;2023-07-13T09:43:07;2.80;;;0.90;;
13685;SDS011;6915;48.296;8.874;2023-07-13T09:45:37;2.75;;;1.10;;
13685;SDS011;6915;48.296;8.874;2023-07-13T09:48:06;4.35;;;1.50;;
13685;SDS011;6915;48.296;8.874;2023-07-13T09:50:39;1.35;;;1.02;;
13685;SDS011;6915;48.296;8.874;2023-07-13T09:53:12;2.53;;;1.00;;
13685;SDS011;6915;48.296;8.874;2023-07-13T09:55:40;3.38;;;1.30;;
13685;SDS011;6915;48.296;8.874;2023-07-13T09:58:12;2.83;;;1.25;;
13685;SDS011;6915;48.296;8.874;2023-07-13T10:00:44;5.05;;;1.20;;
13685;SDS011;6915;48.296;8.874;2023-07-13T10:03:23;4.63;;;1.25;;
13685;SDS011;6915;48.296;8.874;2023-07-13T10:05:53;2.65;;;1.20;;
13685;SDS011;6915;48.296;8.874;2023-07-13T10:08:28;2.67;;;1.10;;
13685;SDS011;6915;48.296;8.874;2023-07-13T10:10:58;4.00;;;1.20;;
13685;SDS011;6915;48.296;8.874;2023-07-13T10:13:37;2.60;;;1.20;;
13685;SDS011;6915;48.296;8.874;2023-07-13T10:16:08;3.88;;;1.00;;
13685;SDS011;6915;48.296;8.874;2023-07-13T10:18:39;5.93;;;1.23;;
13685;SDS011;6915;48.296;8.874;2023-07-13T10:21:12;3.35;;;1.27;;
13685;SDS011;6915;48.296;8.874;2023-07-13T10:23:42;3.15;;;1.02;;
13685;SDS011;6915;48.296;8.874;2023-07-13T10:26:13;4.45;;;1.48;;
13685;SDS011;6915;48.296;8.874;2023-07-13T10:28:43;2.70;;;0.90;;
13685;SDS011;6915;48.296;8.874;2023-07-13T10:31:18;4.90;;;1.38;;
13685;SDS011;6915;48.296;8.874;2023-07-13T10:33:48;2.53;;;1.10;;
13685;SDS011;6915;48.296;8.874;2023-07-13T10:36:23;2.35;;;1.20;;
13685;SDS011;6915;48.296;8.874;2023-07-13T10:39:05;2.95;;;1.27;;
13685;SDS011;6915;48.296;8.874;2023-07-13T10:41:38;5.55;;;1.20;;
13685;SDS011;6915;48.296;8.874;2023-07-13T10:44:12;3.75;;;1.10;;
13685;SDS011;6915;48.296;8.874;2023-07-13T10:46:50;3.10;;;1.15;;
13685;SDS011;6915;48.296;8.874;2023-07-13T10:49:19;3.35;;;1.25;;
13685;SDS011;6915;48.296;8.874;2023-07-13T10:51:50;2.00;;;0.95;;
13685;SDS011;6915;48.296;8.874;2023-07-13T10:54:20;5.10;;;1.38;;
13685;SDS011;6915;48.296;8.874;2023-07-13T10:56:53;1.30;;;1.20;;
13685;SDS011;6915;48.296;8.874;2023-07-13T10:59:36;4.10;;;1.40;;
13685;SDS011;6915;48.296;8.874;2023-07-13T11:02:10;2.42;;;1.38;;
13685;SDS011;6915;48.296;8.874;2023-07-13T11:04:44;3.13;;;1.10;;
13685;SDS011;6915;48.296;8.874;2023-07-13T11:07:20;4.70;;;1.13;;
13685;SDS011;6915;48.296;8.874;2023-07-13T11:09:51;2.58;;;1.20;;
13685;SDS011;6915;48.296;8.874;2023-07-13T11:12:48;5.75;;;1.10;;
13685;SDS011;6915;48.296;8.874;2023-07-13T11:15:27;2.88;;;1.40;;
13685;SDS011;6915;48.296;8.874;2023-07-13T11:18:18;2.50;;;1.00;;
13685;SDS011;6915;48.296;8.874;2023-07-13T11:20:50;2.50;;;1.13;;
13685;SDS011;6915;48.296;8.874;2023-07-13T11:23:39;1.10;;;1.00;;
13685;SDS011;6915;48.296;8.874;2023-07-13T11:29:08;4.25;;;1.10;;
13685;SDS011;6915;48.296;8.874;2023-07-13T11:31:51;2.05;;;1.10;;
13685;SDS011;6915;48.296;8.874;2023-07-13T11:34:23;2.17;;;1.00;;
13685;SDS011;6915;48.296;8.874;2023-07-13T11:36:54;1.67;;;1.20;;
13685;SDS011;6915;48.296;8.874;2023-07-13T11:39:28;2.33;;;1.20;;
13685;SDS011;6915;48.296;8.874;2023-07-13T11:41:59;3.30;;;1.08;;
13685;SDS011;6915;48.296;8.874;2023-07-13T11:44:30;1.58;;;0.88;;
13685;SDS011;6915;48.296;8.874;2023-07-13T11:47:07;1.50;;;1.08;;
13685;SDS011;6915;48.296;8.874;2023-07-13T11:49:42;2.25;;;1.00;;
13685;SDS011;6915;48.296;8.874;2023-07-13T11:52:15;1.90;;;0.93;;
13685;SDS011;6915;48.296;8.874;2023-07-13T11:54:48;2.78;;;1.02;;
13685;SDS011;6915;48.296;8.874;2023-07-13T11:57:23;0.95;;;0.82;;
13685;SDS011;6915;48.296;8.874;2023-07-13T11:59:54;2.92;;;1.20;;
13685;SDS011;6915;48.296;8.874;2023-07-13T12:02:25;3.30;;;1.30;;
13685;SDS011;6915;48.296;8.874;2023-07-13T12:04:58;4.00;;;1.42;;
13685;SDS011;6915;48.296;8.874;2023-07-13T12:07:29;3.20;;;1.17;;
13685;SDS011;6915;48.296;8.874;2023-07-13T12:10:01;2.45;;;1.30;;
13685;SDS011;6915;48.296;8.874;2023-07-13T12:12:37;1.30;;;0.95;;
13685;SDS011;6915;48.296;8.874;2023-07-13T12:15:13;1.92;;;1.05;;
13685;SDS011;6915;48.296;8.874;2023-07-13T12:17:45;3.65;;;1.02;;
13685;SDS011;6915;48.296;8.874;2023-07-13T12:20:18;2.25;;;1.00;;
13685;SDS011;6915;48.296;8.874;2023-07-13T12:22:52;2.60;;;1.27;;
13685;SDS011;6915;48.296;8.874;2023-07-13T12:25:22;1.88;;;1.08;;
13685;SDS011;6915;48.296;8.874;2023-07-13T12:27:52;3.65;;;1.20;;
13685;SDS011;6915;48.296;8.874;2023-07-13T12:30:23;3.83;;;1.02;;
13685;SDS011;6915;48.296;8.874;2023-07-13T12:32:56;2.03;;;1.30;;
13685;SDS011;6915;48.296;8.874;2023-07-13T12:35:26;2.17;;;1.10;;
13685;SDS011;6915;48.296;8.874;2023-07-13T12:38:00;2.65;;;1.13;;
13685;SDS011;6915;48.296;8.874;2023-07-13T12:40:32;2.50;;;0.95;;
13685;SDS011;6915;48.296;8.874;2023-07-13T12:43:02;3.45;;;1.10;;
13685;SDS011;6915;48.296;8.874;2023-07-13T12:45:31;2.65;;;0.98;;
13685;SDS011;6915;48.296;8.874;2023-07-13T12:48:03;2.88;;;1.30;;
13685;SDS011;6915;48.296;8.874;2023-07-13T12:50:41;1.17;;;1.05;;
13685;SDS011;6915;48.296;8.874;2023-07-13T12:53:21;2.47;;;1.10;;
13685;SDS011;6915;48.296;8.874;2023-07-13T12:56:08;2.30;;;1.23;;
13685;SDS011;6915;48.296;8.874;2023-07-13T12:58:49;1.50;;;1.15;;
13685;SDS011;6915;48.296;8.874;2023-07-13T13:01:34;1.95;;;1.42;;
13685;SDS011;6915;48.296;8.874;2023-07-13T13:04:04;1.05;;;1.00;;
13685;SDS011;6915;48.296;8.874;2023-07-13T13:06:38;1.58;;;1.30;;
13685;SDS011;6915;48.296;8.874;2023-07-13T13:09:22;2.25;;;1.13;;
13685;SDS011;6915;48.296;8.874;2023-07-13T13:11:56;2.78;;;1.00;;
13685;SDS011;6915;48.296;8.874;2023-07-13T13:14:31;2.83;;;1.35;;
13685;SDS011;6915;48.296;8.874;2023-07-13T13:17:04;3.10;;;1.00;;
13685;SDS011;6915;48.296;8.874;2023-07-13T13:19:51;2.05;;;1.25;;
13685;SDS011;6915;48.296;8.874;2023-07-13T13:22:27;2.70;;;0.90;;
13685;SDS011;6915;48.296;8.874;2023-07-13T13:24:57;3.08;;;0.90;;
13685;SDS011;6915;48.296;8.874;2023-07-13T13:27:31;2.47;;;1.20;;
13685;SDS011;6915;48.296;8.874;2023-07-13T13:30:19;2.83;;;1.10;;
13685;SDS011;6915;48.296;8.874;2023-07-13T13:35:45;0.80;;;0.80;;
13685;SDS011;6915;48.296;8.874;2023-07-13T13:38:14;2.92;;;1.27;;
13685;SDS011;6915;48.296;8.874;2023-07-13T13:40:45;2.95;;;1.00;;
13685;SDS011;6915;48.296;8.874;2023-07-13T13:43:16;1.38;;;0.90;;
13685;SDS011;6915;48.296;8.874;2023-07-13T13:45:53;2.45;;;1.05;;
13685;SDS011;6915;48.296;8.874;2023-07-13T13:48:26;1.38;;;0.85;;
13685;SDS011;6915;48.296;8.874;2023-07-13T13:50:59;4.00;;;1.23;;
13685;SDS011;6915;48.296;8.874;2023-07-13T13:53:46;1.73;;;0.82;;
13685;SDS011;6915;48.296;8.874;2023-07-13T13:56:17;3.30;;;1.35;;
13685;SDS011;6915;48.296;8.874;2023-07-13T13:58:48;2.30;;;1.20;;
13685;SDS011;6915;48.296;8.874;2023-07-13T14:01:20;2.83;;;1.05;;
13685;SDS011;6915;48.296;8.874;2023-07-13T14:03:51;2.08;;;1.25;;
13685;SDS011;6915;48.296;8.874;2023-07-13T14:06:21;3.63;;;1.00;;
13685;SDS011;6915;48.296;8.874;2023-07-13T14:08:50;2.17;;;0.90;;
13685;SDS011;6915;48.296;8.874;2023-07-13T14:11:22;2.33;;;1.20;;
13685;SDS011;6915;48.296;8.874;2023-07-13T14:13:53;2.45;;;1.00;;
13685;SDS011;6915;48.296;8.874;2023-07-13T14:16:25;2.08;;;1.20;;
13685;SDS011;6915;48.296;8.874;2023-07-13T14:18:57;1.27;;;0.95;;
13685;SDS011;6915;48.296;8.874;2023-07-13T14:21:27;1.58;;;1.00;;
13685;SDS011;6915;48.296;8.874;2023-07-13T14:23:56;1.80;;;1.20;;
13685;SDS011;6915;48.296;8.874;2023-07-13T14:26:25;3.03;;;1.30;;
13685;SDS011;6915;48.296;8.874;2023-07-13T14:28:59;3.60;;;0.95;;
13685;SDS011;6915;48.296;8.874;2023-07-13T14:31:30;1.75;;;0.90;;
13685;SDS011;6915;48.296;8.874;2023-07-13T14:34:00;2.75;;;0.98;;
13685;SDS011;6915;48.296;8.874;2023-07-13T14:36:31;1.20;;;1.00;;
13685;SDS011;6915;48.296;8.874;2023-07-13T14:39:05;1.40;;;1.20;;
13685;SDS011;6915;48.296;8.874;2023-07-13T14:41:39;2.47;;;1.30;;
13685;SDS011;6915;48.296;8.874;2023-07-13T14:44:15;2.53;;;1.20;;
13685;SDS011;6915;48.296;8.874;2023-07-13T14:46:48;6.60;;;1.27;;
13685;SDS011;6915;48.296;8.874;2023-07-13T14:49:23;1.85;;;1.00;;
13685;SDS011;6915;48.296;8.874;2023-07-13T14:51:55;1.58;;;1.00;;
13685;SDS011;6915;48.296;8.874;2023-07-13T14:54:28;2.67;;;1.20;;
13685;SDS011;6915;48.296;8.874;2023-07-13T14:56:57;2.72;;;1.20;;
13685;SDS011;6915;48.296;8.874;2023-07-13T14:59:28;2.92;;;1.17;;
13685;SDS011;6915;48.296;8.874;2023-07-13T15:01:57;1.70;;;0.95;;
13685;SDS011;6915;48.296;8.874;2023-07-13T15:04:26;5.00;;;1.40;;
13685;SDS011;6915;48.296;8.874;2023-07-13T15:06:56;3.58;;;1.05;;
13685;SDS011;6915;48.296;8.874;2023-07-13T15:09:26;2.05;;;1.20;;
13685;SDS011;6915;48.296;8.874;2023-07-13T15:11:56;2.70;;;1.33;;
13685;SDS011;6915;48.296;8.874;2023-07-13T15:14:25;4.07;;;1.20;;
13685;SDS011;6915;48.296;8.874;2023-07-13T15:16:55;3.60;;;1.10;;
13685;SDS011;6915;48.296;8.874;2023-07-13T15:19:24;3.45;;;1.30;;
13685;SDS011;6915;48.296;8.874;2023-07-13T15:21:53;3.22;;;1.30;;
13685;SDS011;6915;48.296;8.874;2023-07-13T15:24:23;2.17;;;1.15;;
13685;SDS011;6915;48.296;8.874;2023-07-13T15:26:52;1.65;;;0.98;;
13685;SDS011;6915;48.296;8.874;2023-07-13T15:29:21;3.15;;;1.00;;
13685;SDS011;6915;48.296;8.874;2023-07-13T15:32:08;2.13;;;1.35;;
13685;SDS011;6915;48.296;8.874;2023-07-13T15:34:43;1.63;;;1.13;;
13685;SDS011;6915;48.296;8.874;2023-07-13T15:37:13;4.22;;;1.23;;
13685;SDS011;6915;48.296;8.874;2023-07-13T15:39:44;3.17;;;1.48;;
13685;SDS011;6915;48.296;8.874;2023-07-13T15:42:13;1.90;;;1.20;;